sensor_id;sensor_type;location;lat;lon;timestamp;temperature;humidity
22436;DHT22;11385;50.822;4.324;2024-01-11T00:00:20;-0.70;99.90
22436;DHT22;11385;50.822;4.324;2024-01-11T00:02:47;-0.80;99.90
22436;DHT22;11385;50.822;4.324;2024-01-11T00:05:13;-0.80;99.90
22436;DHT22;11385;50.822;4.324;2024-01-11T00:07:40;-0.80;99.90
22436;DHT22;11385;50.822;4.324;2024-01-11T00:10:07;-0.80;99.90
22436;DHT22;11385;50.822;4.324;2024-01-11T00:12:34;-0.90;99.90
22436;DHT22;11385;50.822;4.324;2024-01-11T00:15:01;-0.90;99.90
22436;DHT22;11385;50.822;4.324;2024-01-11T00:17:28;-0.80;99.90
22436;DHT22;11385;50.822;4.324;2024-01-11T00:19:54;-0.90;99.90
22436;DHT22;11385;50.822;4.324;2024-01-11T00:22:21;-0.90;99.90
22436;DHT22;11385;50.822;4.324;2024-01-11T00:24:47;-0.70;99.90
22436;DHT22;11385;50.822;4.324;2024-01-11T00:27:15;-0.90;99.90
22436;DHT22;11385;50.822;4.324;2024-01-11T00:29:42;-0.70;99.90
22436;DHT22;11385;50.822;4.324;2024-01-11T00:32:09;-0.90;99.90
22436;DHT22;11385;50.822;4.324;2024-01-11T00:34:36;-0.90;99.90
22436;DHT22;11385;50.822;4.324;2024-01-11T00:37:03;-1.00;99.90
22436;DHT22;11385;50.822;4.324;2024-01-11T00:39:29;-1.00;99.90
22436;DHT22;11385;50.822;4.324;2024-01-11T00:41:56;-1.00;99.90
22436;DHT22;11385;50.822;4.324;2024-01-11T00:44:23;-0.90;99.90
22436;DHT22;11385;50.822;4.324;2024-01-11T00:46:50;-0.80;99.90
22436;DHT22;11385;50.822;4.324;2024-01-11T00:49:16;-0.90;99.90
22436;DHT22;11385;50.822;4.324;2024-01-11T00:51:43;-0.90;99.90
22436;DHT22;11385;50.822;4.324;2024-01-11T00:54:10;-0.80;99.90
22436;DHT22;11385;50.822;4.324;2024-01-11T00:56:36;-0.70;99.90
22436;DHT22;11385;50.822;4.324;2024-01-11T00:59:03;-0.70;99.90
22436;DHT22;11385;50.822;4.324;2024-01-11T01:01:30;-0.70;99.90
22436;DHT22;11385;50.822;4.324;2024-01-11T01:03:57;-0.60;99.90
22436;DHT22;11385;50.822;4.324;2024-01-11T01:06:24;-0.80;99.90
22436;DHT22;11385;50.822;4.324;2024-01-11T01:08:51;-0.90;99.90
22436;DHT22;11385;50.822;4.324;2024-01-11T01:11:17;-0.90;99.90
22436;DHT22;11385;50.822;4.324;2024-01-11T01:13:44;-0.80;99.90
22436;DHT22;11385;50.822;4.324;2024-01-11T01:16:11;-0.80;99.90
22436;DHT22;11385;50.822;4.324;2024-01-11T01:18:37;-0.80;99.90
22436;DHT22;11385;50.822;4.324;2024-01-11T01:21:04;-1.00;99.90
22436;DHT22;11385;50.822;4.324;2024-01-11T01:23:33;-0.90;99.90
22436;DHT22;11385;50.822;4.324;2024-01-11T01:25:59;-0.90;99.90
22436;DHT22;11385;50.822;4.324;2024-01-11T01:28:26;-0.90;99.90
22436;DHT22;11385;50.822;4.324;2024-01-11T01:30:52;-0.90;99.90
22436;DHT22;11385;50.822;4.324;2024-01-11T01:33:19;-0.90;99.90
22436;DHT22;11385;50.822;4.324;2024-01-11T01:35:46;-1.00;99.90
22436;DHT22;11385;50.822;4.324;2024-01-11T01:38:12;-1.00;99.90
22436;DHT22;11385;50.822;4.324;2024-01-11T01:40:39;-1.10;99.90
22436;DHT22;11385;50.822;4.324;2024-01-11T01:43:07;-1.20;99.90
22436;DHT22;11385;50.822;4.324;2024-01-11T01:45:36;-1.10;99.90
22436;DHT22;11385;50.822;4.324;2024-01-11T01:48:03;-0.90;99.90
22436;DHT22;11385;50.822;4.324;2024-01-11T01:50:30;-0.90;99.90
22436;DHT22;11385;50.822;4.324;2024-01-11T01:52:58;-0.90;99.90
22436;DHT22;11385;50.822;4.324;2024-01-11T01:55:26;-0.80;99.90
22436;DHT22;11385;50.822;4.324;2024-01-11T01:57:53;-1.10;99.90
22436;DHT22;11385;50.822;4.324;2024-01-11T02:00:20;-1.10;99.90
22436;DHT22;11385;50.822;4.324;2024-01-11T02:02:50;-1.10;99.90
22436;DHT22;11385;50.822;4.324;2024-01-11T02:05:18;-1.00;99.90
22436;DHT22;11385;50.822;4.324;2024-01-11T02:07:45;-1.10;99.90
22436;DHT22;11385;50.822;4.324;2024-01-11T02:10:12;-1.20;99.90
22436;DHT22;11385;50.822;4.324;2024-01-11T02:12:39;-1.20;99.90
22436;DHT22;11385;50.822;4.324;2024-01-11T02:15:07;-1.00;99.90
22436;DHT22;11385;50.822;4.324;2024-01-11T02:17:34;-1.00;99.90
22436;DHT22;11385;50.822;4.324;2024-01-11T02:20:01;-1.10;99.90
22436;DHT22;11385;50.822;4.324;2024-01-11T02:22:32;-1.00;99.90
22436;DHT22;11385;50.822;4.324;2024-01-11T02:25:01;-1.00;99.90
22436;DHT22;11385;50.822;4.324;2024-01-11T02:27:28;-1.00;99.90
22436;DHT22;11385;50.822;4.324;2024-01-11T02:29:55;-1.10;99.90
22436;DHT22;11385;50.822;4.324;2024-01-11T02:32:22;-1.10;99.90
22436;DHT22;11385;50.822;4.324;2024-01-11T02:34:49;-1.10;99.90
22436;DHT22;11385;50.822;4.324;2024-01-11T02:37:16;-1.20;99.90
22436;DHT22;11385;50.822;4.324;2024-01-11T02:39:43;-1.30;99.90
22436;DHT22;11385;50.822;4.324;2024-01-11T02:42:12;-1.40;99.90
22436;DHT22;11385;50.822;4.324;2024-01-11T02:44:39;-1.30;99.90
22436;DHT22;11385;50.822;4.324;2024-01-11T02:47:06;-1.20;99.90
22436;DHT22;11385;50.822;4.324;2024-01-11T02:49:33;-1.20;99.90
22436;DHT22;11385;50.822;4.324;2024-01-11T02:51:59;-1.40;99.90
22436;DHT22;11385;50.822;4.324;2024-01-11T02:54:26;-1.40;99.90
22436;DHT22;11385;50.822;4.324;2024-01-11T02:56:52;-1.40;99.90
22436;DHT22;11385;50.822;4.324;2024-01-11T02:59:19;-1.40;99.90
22436;DHT22;11385;50.822;4.324;2024-01-11T03:01:46;-1.60;99.90
22436;DHT22;11385;50.822;4.324;2024-01-11T03:04:12;-1.50;99.90
22436;DHT22;11385;50.822;4.324;2024-01-11T03:06:40;-1.50;99.90
22436;DHT22;11385;50.822;4.324;2024-01-11T03:09:06;-1.50;99.90
22436;DHT22;11385;50.822;4.324;2024-01-11T03:11:33;-1.50;99.90
22436;DHT22;11385;50.822;4.324;2024-01-11T03:14:00;-1.50;99.90
22436;DHT22;11385;50.822;4.324;2024-01-11T03:16:27;-1.70;99.90
22436;DHT22;11385;50.822;4.324;2024-01-11T03:18:56;-1.70;99.90
22436;DHT22;11385;50.822;4.324;2024-01-11T03:21:24;-1.60;99.90
22436;DHT22;11385;50.822;4.324;2024-01-11T03:23:54;-1.70;99.90
22436;DHT22;11385;50.822;4.324;2024-01-11T03:26:20;-1.70;99.90
22436;DHT22;11385;50.822;4.324;2024-01-11T03:28:47;-1.70;99.90
22436;DHT22;11385;50.822;4.324;2024-01-11T03:31:13;-1.60;99.90
22436;DHT22;11385;50.822;4.324;2024-01-11T03:33:40;-1.60;99.90
22436;DHT22;11385;50.822;4.324;2024-01-11T03:36:10;-1.70;99.90
22436;DHT22;11385;50.822;4.324;2024-01-11T03:38:37;-1.60;99.90
22436;DHT22;11385;50.822;4.324;2024-01-11T03:41:08;-1.60;99.90
22436;DHT22;11385;50.822;4.324;2024-01-11T03:43:36;-1.60;99.90
22436;DHT22;11385;50.822;4.324;2024-01-11T03:46:05;-1.60;99.90
22436;DHT22;11385;50.822;4.324;2024-01-11T03:48:33;-1.70;99.90
22436;DHT22;11385;50.822;4.324;2024-01-11T03:51:02;-1.70;99.90
22436;DHT22;11385;50.822;4.324;2024-01-11T03:53:29;-1.70;99.90
22436;DHT22;11385;50.822;4.324;2024-01-11T03:55:56;-1.70;99.90
22436;DHT22;11385;50.822;4.324;2024-01-11T03:58:22;-1.70;99.90
22436;DHT22;11385;50.822;4.324;2024-01-11T04:00:50;-1.70;99.90
22436;DHT22;11385;50.822;4.324;2024-01-11T04:03:17;-1.80;99.90
22436;DHT22;11385;50.822;4.324;2024-01-11T04:05:45;-1.80;99.90
22436;DHT22;11385;50.822;4.324;2024-01-11T04:08:12;-1.90;99.90
22436;DHT22;11385;50.822;4.324;2024-01-11T04:10:39;-1.90;99.90
22436;DHT22;11385;50.822;4.324;2024-01-11T04:13:07;-2.00;99.90
22436;DHT22;11385;50.822;4.324;2024-01-11T04:15:33;-2.00;99.90
22436;DHT22;11385;50.822;4.324;2024-01-11T04:18:00;-2.00;99.90
22436;DHT22;11385;50.822;4.324;2024-01-11T04:20:27;-1.90;99.90
22436;DHT22;11385;50.822;4.324;2024-01-11T04:22:53;-1.90;99.90
22436;DHT22;11385;50.822;4.324;2024-01-11T04:25:20;-1.90;99.90
22436;DHT22;11385;50.822;4.324;2024-01-11T04:27:48;-1.90;99.90
22436;DHT22;11385;50.822;4.324;2024-01-11T04:30:15;-1.90;99.90
22436;DHT22;11385;50.822;4.324;2024-01-11T04:32:41;-2.00;99.90
22436;DHT22;11385;50.822;4.324;2024-01-11T04:35:08;-2.00;99.90
22436;DHT22;11385;50.822;4.324;2024-01-11T04:37:36;-2.00;99.90
22436;DHT22;11385;50.822;4.324;2024-01-11T04:40:07;-2.10;99.90
22436;DHT22;11385;50.822;4.324;2024-01-11T04:42:34;-2.20;99.90
22436;DHT22;11385;50.822;4.324;2024-01-11T04:45:01;-2.20;99.90
22436;DHT22;11385;50.822;4.324;2024-01-11T04:47:30;-2.10;99.90
22436;DHT22;11385;50.822;4.324;2024-01-11T04:49:58;-1.90;99.90
22436;DHT22;11385;50.822;4.324;2024-01-11T04:52:25;-1.80;99.90
22436;DHT22;11385;50.822;4.324;2024-01-11T04:54:51;-1.80;99.90
22436;DHT22;11385;50.822;4.324;2024-01-11T04:57:19;-1.90;99.90
22436;DHT22;11385;50.822;4.324;2024-01-11T04:59:47;-1.90;99.90
22436;DHT22;11385;50.822;4.324;2024-01-11T05:02:14;-1.90;99.90
22436;DHT22;11385;50.822;4.324;2024-01-11T05:04:41;-2.00;99.90
22436;DHT22;11385;50.822;4.324;2024-01-11T05:07:08;-1.90;99.90
22436;DHT22;11385;50.822;4.324;2024-01-11T05:09:34;-1.90;99.90
22436;DHT22;11385;50.822;4.324;2024-01-11T05:12:01;-1.90;99.90
22436;DHT22;11385;50.822;4.324;2024-01-11T05:14:29;-2.00;99.90
22436;DHT22;11385;50.822;4.324;2024-01-11T05:16:55;-2.00;99.90
22436;DHT22;11385;50.822;4.324;2024-01-11T05:19:23;-1.80;99.90
22436;DHT22;11385;50.822;4.324;2024-01-11T05:21:49;-1.70;99.90
22436;DHT22;11385;50.822;4.324;2024-01-11T05:24:16;-1.70;99.90
22436;DHT22;11385;50.822;4.324;2024-01-11T05:26:43;-1.70;99.90
22436;DHT22;11385;50.822;4.324;2024-01-11T05:29:09;-1.80;99.90
22436;DHT22;11385;50.822;4.324;2024-01-11T05:31:36;-1.90;99.90
22436;DHT22;11385;50.822;4.324;2024-01-11T05:34:03;-1.70;99.90
22436;DHT22;11385;50.822;4.324;2024-01-11T05:36:30;-1.90;99.90
22436;DHT22;11385;50.822;4.324;2024-01-11T05:38:56;-2.00;99.90
22436;DHT22;11385;50.822;4.324;2024-01-11T05:41:23;-2.00;99.90
22436;DHT22;11385;50.822;4.324;2024-01-11T05:43:49;-1.90;99.90
22436;DHT22;11385;50.822;4.324;2024-01-11T05:46:16;-1.90;99.90
22436;DHT22;11385;50.822;4.324;2024-01-11T05:48:43;-1.80;99.90
22436;DHT22;11385;50.822;4.324;2024-01-11T05:51:09;-1.90;99.90
22436;DHT22;11385;50.822;4.324;2024-01-11T05:53:36;-2.00;99.90
22436;DHT22;11385;50.822;4.324;2024-01-11T05:56:07;-1.90;99.90
22436;DHT22;11385;50.822;4.324;2024-01-11T05:58:34;-2.00;99.90
22436;DHT22;11385;50.822;4.324;2024-01-11T06:01:03;-2.00;99.90
22436;DHT22;11385;50.822;4.324;2024-01-11T06:03:29;-1.90;99.90
22436;DHT22;11385;50.822;4.324;2024-01-11T06:05:58;-1.80;99.90
22436;DHT22;11385;50.822;4.324;2024-01-11T06:08:26;-1.80;99.90
22436;DHT22;11385;50.822;4.324;2024-01-11T06:10:52;-1.90;99.90
22436;DHT22;11385;50.822;4.324;2024-01-11T06:13:19;-1.90;99.90
22436;DHT22;11385;50.822;4.324;2024-01-11T06:15:46;-1.80;99.90
22436;DHT22;11385;50.822;4.324;2024-01-11T06:18:12;-1.90;99.90
22436;DHT22;11385;50.822;4.324;2024-01-11T06:20:39;-2.00;99.90
22436;DHT22;11385;50.822;4.324;2024-01-11T06:23:05;-2.00;99.90
22436;DHT22;11385;50.822;4.324;2024-01-11T06:25:33;-2.00;99.90
22436;DHT22;11385;50.822;4.324;2024-01-11T06:28:00;-2.10;99.90
22436;DHT22;11385;50.822;4.324;2024-01-11T06:30:26;-2.10;99.90
22436;DHT22;11385;50.822;4.324;2024-01-11T06:32:53;-2.20;99.90
22436;DHT22;11385;50.822;4.324;2024-01-11T06:35:19;-2.20;99.90
22436;DHT22;11385;50.822;4.324;2024-01-11T06:37:47;-2.20;99.90
22436;DHT22;11385;50.822;4.324;2024-01-11T06:40:14;-2.30;99.90
22436;DHT22;11385;50.822;4.324;2024-01-11T06:42:41;-2.30;99.90
22436;DHT22;11385;50.822;4.324;2024-01-11T06:45:08;-2.10;99.90
22436;DHT22;11385;50.822;4.324;2024-01-11T06:47:35;-2.20;99.90
22436;DHT22;11385;50.822;4.324;2024-01-11T06:50:01;-2.30;99.90
22436;DHT22;11385;50.822;4.324;2024-01-11T06:52:29;-2.30;99.90
22436;DHT22;11385;50.822;4.324;2024-01-11T06:54:56;-2.30;99.90
22436;DHT22;11385;50.822;4.324;2024-01-11T06:57:22;-2.20;99.90
22436;DHT22;11385;50.822;4.324;2024-01-11T06:59:50;-2.00;99.90
22436;DHT22;11385;50.822;4.324;2024-01-11T07:02:17;-2.10;99.90
22436;DHT22;11385;50.822;4.324;2024-01-11T07:04:44;-2.20;99.90
22436;DHT22;11385;50.822;4.324;2024-01-11T07:07:11;-2.30;99.90
22436;DHT22;11385;50.822;4.324;2024-01-11T07:09:38;-2.20;99.90
22436;DHT22;11385;50.822;4.324;2024-01-11T07:12:05;-2.20;99.90
22436;DHT22;11385;50.822;4.324;2024-01-11T07:14:32;-2.30;99.90
22436;DHT22;11385;50.822;4.324;2024-01-11T07:16:58;-2.40;99.90
22436;DHT22;11385;50.822;4.324;2024-01-11T07:19:25;-2.30;99.90
22436;DHT22;11385;50.822;4.324;2024-01-11T07:21:52;-2.20;99.90
22436;DHT22;11385;50.822;4.324;2024-01-11T07:24:19;-2.20;99.90
22436;DHT22;11385;50.822;4.324;2024-01-11T07:26:45;-2.00;99.90
22436;DHT22;11385;50.822;4.324;2024-01-11T07:29:12;-2.00;99.90
22436;DHT22;11385;50.822;4.324;2024-01-11T07:31:38;-2.10;99.90
22436;DHT22;11385;50.822;4.324;2024-01-11T07:34:05;-2.20;99.90
22436;DHT22;11385;50.822;4.324;2024-01-11T07:36:32;-2.40;99.90
22436;DHT22;11385;50.822;4.324;2024-01-11T07:38:58;-2.40;99.90
22436;DHT22;11385;50.822;4.324;2024-01-11T07:41:25;-2.30;99.90
22436;DHT22;11385;50.822;4.324;2024-01-11T07:43:52;-2.20;99.90
22436;DHT22;11385;50.822;4.324;2024-01-11T07:46:20;-2.30;99.90
22436;DHT22;11385;50.822;4.324;2024-01-11T07:48:46;-2.30;99.90
22436;DHT22;11385;50.822;4.324;2024-01-11T07:51:13;-2.20;99.90
22436;DHT22;11385;50.822;4.324;2024-01-11T07:53:40;-2.20;99.90
22436;DHT22;11385;50.822;4.324;2024-01-11T07:56:06;-2.20;99.90
22436;DHT22;11385;50.822;4.324;2024-01-11T07:58:33;-2.30;99.90
22436;DHT22;11385;50.822;4.324;2024-01-11T08:01:02;-2.20;99.90
22436;DHT22;11385;50.822;4.324;2024-01-11T08:03:28;-2.30;99.90
22436;DHT22;11385;50.822;4.324;2024-01-11T08:05:56;-2.30;99.90
22436;DHT22;11385;50.822;4.324;2024-01-11T08:08:22;-2.30;99.90
22436;DHT22;11385;50.822;4.324;2024-01-11T08:10:49;-2.40;99.90
22436;DHT22;11385;50.822;4.324;2024-01-11T08:13:15;-2.40;99.90
22436;DHT22;11385;50.822;4.324;2024-01-11T08:15:43;-2.40;99.90
22436;DHT22;11385;50.822;4.324;2024-01-11T08:18:10;-2.30;99.90
22436;DHT22;11385;50.822;4.324;2024-01-11T08:20:38;-2.30;99.90
22436;DHT22;11385;50.822;4.324;2024-01-11T08:23:05;-2.30;99.90
22436;DHT22;11385;50.822;4.324;2024-01-11T08:25:32;-2.30;99.90
22436;DHT22;11385;50.822;4.324;2024-01-11T08:27:59;-2.20;99.90
22436;DHT22;11385;50.822;4.324;2024-01-11T08:30:26;-2.30;99.90
22436;DHT22;11385;50.822;4.324;2024-01-11T08:32:53;-2.30;99.90
22436;DHT22;11385;50.822;4.324;2024-01-11T08:35:19;-2.30;99.90
22436;DHT22;11385;50.822;4.324;2024-01-11T08:37:46;-2.10;99.90
22436;DHT22;11385;50.822;4.324;2024-01-11T08:40:13;-2.10;99.90
22436;DHT22;11385;50.822;4.324;2024-01-11T08:42:40;-2.20;99.90
22436;DHT22;11385;50.822;4.324;2024-01-11T08:45:09;-2.30;99.90
22436;DHT22;11385;50.822;4.324;2024-01-11T08:47:36;-2.20;99.90
22436;DHT22;11385;50.822;4.324;2024-01-11T08:50:04;-2.20;99.90
22436;DHT22;11385;50.822;4.324;2024-01-11T08:52:32;-2.20;99.90
22436;DHT22;11385;50.822;4.324;2024-01-11T08:54:59;-2.10;99.90
22436;DHT22;11385;50.822;4.324;2024-01-11T08:57:26;-2.20;99.90
22436;DHT22;11385;50.822;4.324;2024-01-11T08:59:53;-2.00;99.90
22436;DHT22;11385;50.822;4.324;2024-01-11T09:02:21;-2.10;99.90
22436;DHT22;11385;50.822;4.324;2024-01-11T09:04:49;-1.90;99.90
22436;DHT22;11385;50.822;4.324;2024-01-11T09:07:16;-1.90;99.90
22436;DHT22;11385;50.822;4.324;2024-01-11T09:09:43;-2.10;99.90
22436;DHT22;11385;50.822;4.324;2024-01-11T09:12:10;-2.00;99.90
22436;DHT22;11385;50.822;4.324;2024-01-11T09:14:37;-2.10;99.90
22436;DHT22;11385;50.822;4.324;2024-01-11T09:17:03;-2.10;99.90
22436;DHT22;11385;50.822;4.324;2024-01-11T09:19:33;-2.10;99.90
22436;DHT22;11385;50.822;4.324;2024-01-11T09:22:00;-2.00;99.90
22436;DHT22;11385;50.822;4.324;2024-01-11T09:24:27;-1.90;99.90
22436;DHT22;11385;50.822;4.324;2024-01-11T09:26:53;-2.00;99.90
22436;DHT22;11385;50.822;4.324;2024-01-11T09:29:20;-2.00;99.90
22436;DHT22;11385;50.822;4.324;2024-01-11T09:31:47;-2.10;99.90
22436;DHT22;11385;50.822;4.324;2024-01-11T09:34:14;-1.90;99.90
22436;DHT22;11385;50.822;4.324;2024-01-11T09:36:41;-1.90;99.90
22436;DHT22;11385;50.822;4.324;2024-01-11T09:39:07;-1.70;99.90
22436;DHT22;11385;50.822;4.324;2024-01-11T09:41:36;-1.70;99.90
22436;DHT22;11385;50.822;4.324;2024-01-11T09:44:05;-1.70;99.90
22436;DHT22;11385;50.822;4.324;2024-01-11T09:46:32;-1.80;99.90
22436;DHT22;11385;50.822;4.324;2024-01-11T09:49:00;-1.90;99.90
22436;DHT22;11385;50.822;4.324;2024-01-11T09:51:30;-1.70;99.90
22436;DHT22;11385;50.822;4.324;2024-01-11T09:53:58;-1.80;99.90
22436;DHT22;11385;50.822;4.324;2024-01-11T09:56:26;-1.80;99.90
22436;DHT22;11385;50.822;4.324;2024-01-11T09:58:54;-1.70;99.90
22436;DHT22;11385;50.822;4.324;2024-01-11T10:01:21;-1.50;99.90
22436;DHT22;11385;50.822;4.324;2024-01-11T10:03:48;-1.50;99.90
22436;DHT22;11385;50.822;4.324;2024-01-11T10:06:15;-1.60;99.90
22436;DHT22;11385;50.822;4.324;2024-01-11T10:08:44;-1.50;99.90
22436;DHT22;11385;50.822;4.324;2024-01-11T10:11:10;-1.30;99.90
22436;DHT22;11385;50.822;4.324;2024-01-11T10:13:37;-1.20;99.90
22436;DHT22;11385;50.822;4.324;2024-01-11T10:16:07;-1.40;99.90
22436;DHT22;11385;50.822;4.324;2024-01-11T10:18:36;-1.30;99.90
22436;DHT22;11385;50.822;4.324;2024-01-11T10:21:03;-1.10;99.90
22436;DHT22;11385;50.822;4.324;2024-01-11T10:23:33;-1.00;99.90
22436;DHT22;11385;50.822;4.324;2024-01-11T10:26:01;-1.10;99.90
22436;DHT22;11385;50.822;4.324;2024-01-11T10:28:28;-1.20;99.90
22436;DHT22;11385;50.822;4.324;2024-01-11T10:30:55;-1.30;99.90
22436;DHT22;11385;50.822;4.324;2024-01-11T10:33:22;-1.30;99.90
22436;DHT22;11385;50.822;4.324;2024-01-11T10:35:49;-1.40;99.90
22436;DHT22;11385;50.822;4.324;2024-01-11T10:38:17;-1.20;99.90
22436;DHT22;11385;50.822;4.324;2024-01-11T10:40:44;-1.20;99.90
22436;DHT22;11385;50.822;4.324;2024-01-11T10:43:12;-1.10;99.90
22436;DHT22;11385;50.822;4.324;2024-01-11T10:45:42;-0.90;99.90
22436;DHT22;11385;50.822;4.324;2024-01-11T10:48:15;-0.80;99.90
22436;DHT22;11385;50.822;4.324;2024-01-11T10:50:44;-0.80;99.90
22436;DHT22;11385;50.822;4.324;2024-01-11T10:53:35;-0.70;99.90
22436;DHT22;11385;50.822;4.324;2024-01-11T10:56:01;-0.60;99.90
22436;DHT22;11385;50.822;4.324;2024-01-11T10:58:30;-0.40;99.90
22436;DHT22;11385;50.822;4.324;2024-01-11T11:00:59;-0.30;99.90
22436;DHT22;11385;50.822;4.324;2024-01-11T11:03:27;-0.20;99.90
22436;DHT22;11385;50.822;4.324;2024-01-11T11:05:57;-0.10;99.90
22436;DHT22;11385;50.822;4.324;2024-01-11T11:08:25;0.10;99.90
22436;DHT22;11385;50.822;4.324;2024-01-11T11:10:57;0.00;99.90
22436;DHT22;11385;50.822;4.324;2024-01-11T11:13:25;-0.10;99.90
22436;DHT22;11385;50.822;4.324;2024-01-11T11:15:52;0.00;99.90
22436;DHT22;11385;50.822;4.324;2024-01-11T11:18:20;0.10;99.90
22436;DHT22;11385;50.822;4.324;2024-01-11T11:20:47;-0.10;99.90
22436;DHT22;11385;50.822;4.324;2024-01-11T11:23:15;-0.10;99.90
22436;DHT22;11385;50.822;4.324;2024-01-11T11:25:45;-0.20;99.90
22436;DHT22;11385;50.822;4.324;2024-01-11T11:28:13;-0.20;99.90
22436;DHT22;11385;50.822;4.324;2024-01-11T11:30:42;-0.20;99.90
22436;DHT22;11385;50.822;4.324;2024-01-11T11:33:10;-0.30;99.90
22436;DHT22;11385;50.822;4.324;2024-01-11T11:35:37;-0.20;99.90
22436;DHT22;11385;50.822;4.324;2024-01-11T11:38:05;-0.20;99.90
22436;DHT22;11385;50.822;4.324;2024-01-11T11:40:36;0.00;99.90
22436;DHT22;11385;50.822;4.324;2024-01-11T11:43:06;0.00;99.90
22436;DHT22;11385;50.822;4.324;2024-01-11T11:45:33;0.20;99.90
22436;DHT22;11385;50.822;4.324;2024-01-11T11:47:59;0.20;99.90
22436;DHT22;11385;50.822;4.324;2024-01-11T11:50:26;0.20;99.90
22436;DHT22;11385;50.822;4.324;2024-01-11T11:52:55;0.10;99.90
22436;DHT22;11385;50.822;4.324;2024-01-11T11:55:24;0.30;99.90
22436;DHT22;11385;50.822;4.324;2024-01-11T11:57:52;0.40;99.90
22436;DHT22;11385;50.822;4.324;2024-01-11T12:00:20;0.20;99.90
22436;DHT22;11385;50.822;4.324;2024-01-11T12:02:48;0.40;99.90
22436;DHT22;11385;50.822;4.324;2024-01-11T12:05:16;0.40;99.90
22436;DHT22;11385;50.822;4.324;2024-01-11T12:07:43;0.40;99.90
22436;DHT22;11385;50.822;4.324;2024-01-11T12:10:10;0.50;99.90
22436;DHT22;11385;50.822;4.324;2024-01-11T12:12:38;0.50;99.90
22436;DHT22;11385;50.822;4.324;2024-01-11T12:15:06;0.50;99.90
22436;DHT22;11385;50.822;4.324;2024-01-11T12:17:32;0.80;99.90
22436;DHT22;11385;50.822;4.324;2024-01-11T12:19:59;0.80;99.90
22436;DHT22;11385;50.822;4.324;2024-01-11T12:22:26;1.00;99.90
22436;DHT22;11385;50.822;4.324;2024-01-11T12:24:53;1.00;99.90
22436;DHT22;11385;50.822;4.324;2024-01-11T12:27:19;1.20;99.90
22436;DHT22;11385;50.822;4.324;2024-01-11T12:29:47;1.40;99.90
22436;DHT22;11385;50.822;4.324;2024-01-11T12:32:14;1.40;99.90
22436;DHT22;11385;50.822;4.324;2024-01-11T12:34:43;1.30;99.90
22436;DHT22;11385;50.822;4.324;2024-01-11T12:37:10;1.30;99.90
22436;DHT22;11385;50.822;4.324;2024-01-11T12:39:38;1.40;99.90
22436;DHT22;11385;50.822;4.324;2024-01-11T12:42:05;1.20;99.90
22436;DHT22;11385;50.822;4.324;2024-01-11T12:44:32;1.40;99.90
22436;DHT22;11385;50.822;4.324;2024-01-11T12:47:01;1.30;99.90
22436;DHT22;11385;50.822;4.324;2024-01-11T12:49:27;1.30;99.90
22436;DHT22;11385;50.822;4.324;2024-01-11T12:51:54;1.50;99.90
22436;DHT22;11385;50.822;4.324;2024-01-11T12:54:20;1.60;99.90
22436;DHT22;11385;50.822;4.324;2024-01-11T12:56:48;1.60;99.90
22436;DHT22;11385;50.822;4.324;2024-01-11T12:59:14;1.70;99.90
22436;DHT22;11385;50.822;4.324;2024-01-11T13:01:42;1.70;99.90
22436;DHT22;11385;50.822;4.324;2024-01-11T13:04:09;1.60;99.90
22436;DHT22;11385;50.822;4.324;2024-01-11T13:06:36;1.70;99.90
22436;DHT22;11385;50.822;4.324;2024-01-11T13:09:03;1.60;99.90
22436;DHT22;11385;50.822;4.324;2024-01-11T13:11:30;1.80;99.90
22436;DHT22;11385;50.822;4.324;2024-01-11T13:13:56;1.90;99.90
22436;DHT22;11385;50.822;4.324;2024-01-11T13:16:25;1.80;99.90
22436;DHT22;11385;50.822;4.324;2024-01-11T13:18:52;1.90;99.90
22436;DHT22;11385;50.822;4.324;2024-01-11T13:21:18;1.90;99.90
22436;DHT22;11385;50.822;4.324;2024-01-11T13:23:45;1.90;99.90
22436;DHT22;11385;50.822;4.324;2024-01-11T13:26:12;1.70;99.90
22436;DHT22;11385;50.822;4.324;2024-01-11T13:28:38;1.80;99.90
22436;DHT22;11385;50.822;4.324;2024-01-11T13:31:05;1.60;99.90
22436;DHT22;11385;50.822;4.324;2024-01-11T13:33:31;1.50;99.90
22436;DHT22;11385;50.822;4.324;2024-01-11T13:35:58;1.80;99.90
22436;DHT22;11385;50.822;4.324;2024-01-11T13:38:26;2.00;99.90
22436;DHT22;11385;50.822;4.324;2024-01-11T13:40:53;2.00;99.90
22436;DHT22;11385;50.822;4.324;2024-01-11T13:43:19;2.20;99.90
22436;DHT22;11385;50.822;4.324;2024-01-11T13:45:46;2.30;99.90
22436;DHT22;11385;50.822;4.324;2024-01-11T13:48:13;2.30;99.90
22436;DHT22;11385;50.822;4.324;2024-01-11T13:50:40;2.30;99.90
22436;DHT22;11385;50.822;4.324;2024-01-11T13:53:06;2.40;99.90
22436;DHT22;11385;50.822;4.324;2024-01-11T13:55:33;2.40;99.90
22436;DHT22;11385;50.822;4.324;2024-01-11T13:58:03;2.30;99.90
22436;DHT22;11385;50.822;4.324;2024-01-11T14:00:31;2.40;99.90
22436;DHT22;11385;50.822;4.324;2024-01-11T14:02:57;2.40;99.90
22436;DHT22;11385;50.822;4.324;2024-01-11T14:05:24;2.50;99.90
22436;DHT22;11385;50.822;4.324;2024-01-11T14:07:51;2.40;99.90
22436;DHT22;11385;50.822;4.324;2024-01-11T14:10:19;2.30;99.90
22436;DHT22;11385;50.822;4.324;2024-01-11T14:12:46;2.10;99.90
22436;DHT22;11385;50.822;4.324;2024-01-11T14:15:12;2.20;99.90
22436;DHT22;11385;50.822;4.324;2024-01-11T14:17:48;2.10;99.90
22436;DHT22;11385;50.822;4.324;2024-01-11T14:20:22;2.20;99.90
22436;DHT22;11385;50.822;4.324;2024-01-11T14:22:51;2.20;99.90
22436;DHT22;11385;50.822;4.324;2024-01-11T14:25:19;2.20;99.90
22436;DHT22;11385;50.822;4.324;2024-01-11T14:27:48;2.40;99.90
22436;DHT22;11385;50.822;4.324;2024-01-11T14:30:21;2.40;99.90
22436;DHT22;11385;50.822;4.324;2024-01-11T14:32:57;2.30;99.90
22436;DHT22;11385;50.822;4.324;2024-01-11T14:35:25;2.20;99.90
22436;DHT22;11385;50.822;4.324;2024-01-11T14:37:53;2.30;99.90
22436;DHT22;11385;50.822;4.324;2024-01-11T14:40:20;2.20;99.90
22436;DHT22;11385;50.822;4.324;2024-01-11T14:42:48;2.40;99.90
22436;DHT22;11385;50.822;4.324;2024-01-11T14:45:15;2.50;99.90
22436;DHT22;11385;50.822;4.324;2024-01-11T14:47:50;2.50;99.90
22436;DHT22;11385;50.822;4.324;2024-01-11T14:50:24;2.60;99.90
22436;DHT22;11385;50.822;4.324;2024-01-11T14:52:53;2.60;99.90
22436;DHT22;11385;50.822;4.324;2024-01-11T14:55:28;2.50;99.90
22436;DHT22;11385;50.822;4.324;2024-01-11T14:58:01;2.50;99.90
22436;DHT22;11385;50.822;4.324;2024-01-11T15:00:29;2.50;99.90
22436;DHT22;11385;50.822;4.324;2024-01-11T15:02:56;2.40;99.90
22436;DHT22;11385;50.822;4.324;2024-01-11T15:05:29;2.30;99.90
22436;DHT22;11385;50.822;4.324;2024-01-11T15:08:04;2.50;99.90
22436;DHT22;11385;50.822;4.324;2024-01-11T15:10:33;2.40;99.90
22436;DHT22;11385;50.822;4.324;2024-01-11T15:12:59;2.40;99.90
22436;DHT22;11385;50.822;4.324;2024-01-11T15:15:27;2.50;99.90
22436;DHT22;11385;50.822;4.324;2024-01-11T15:17:53;2.40;99.90
22436;DHT22;11385;50.822;4.324;2024-01-11T15:20:20;2.40;99.90
22436;DHT22;11385;50.822;4.324;2024-01-11T15:22:48;2.40;99.90
22436;DHT22;11385;50.822;4.324;2024-01-11T15:25:14;2.40;99.90
22436;DHT22;11385;50.822;4.324;2024-01-11T15:27:43;2.50;99.90
22436;DHT22;11385;50.822;4.324;2024-01-11T15:30:10;2.40;99.90
22436;DHT22;11385;50.822;4.324;2024-01-11T15:32:37;2.20;99.90
22436;DHT22;11385;50.822;4.324;2024-01-11T15:35:04;2.20;99.90